Time;durP1;ratioP1;P1;durP2;ratioP2;P2;SDS_P1;SDS_P2;PMS_P1;PMS_P2;Temp;Humidity;BMP_temperature;BMP_pressure;BME280_temperature;BME280_humidity;BME280_pressure;Samples;Min_cycle;Max_cycle;Signal;HPM_P1;HPM_P2
2022/04/09 00:02:23;;;;;;;11.23;2.83;;;4.20;99.90;;;;;;4970540;28;20031;-68
2022/04/09 00:04:49;;;;;;;15.03;3.73;;;4.30;99.90;;;;;;4981816;28;20093;-69
2022/04/09 00:07:15;;;;;;;17.03;2.17;;;4.20;99.90;;;;;;4989633;28;20026;-68
2022/04/09 00:09:40;;;;;;;13.20;1.57;;;4.10;99.90;;;;;;4989508;28;20034;-69
2022/04/09 00:12:08;;;;;;;12.87;2.73;;;4.20;99.90;;;;;;4990177;28;20030;-69
2022/04/09 00:14:34;;;;;;;13.60;2.00;;;;;;;;;;4989496;28;20068;-68
2022/04/09 00:17:00;;;;;;;11.97;2.30;;;;;;;;;;4989975;28;20034;-68
2022/04/09 00:19:26;;;;;;;19.67;2.63;;;;;;;;;;4986424;28;20058;-68
2022/04/09 00:21:51;;;;;;;8.10;2.00;;;3.90;99.90;;;;;;4989181;28;20057;-68
2022/04/09 00:24:17;;;;;;;9.80;2.27;;;3.60;99.90;;;;;;4989989;28;20097;-68
2022/04/09 00:26:45;;;;;;;15.63;3.60;;;3.90;99.90;;;;;;4990202;28;20054;-68
2022/04/09 00:29:11;;;;;;;11.90;2.33;;;3.80;99.90;;;;;;4993945;28;20069;-68
2022/04/09 00:31:36;;;;;;;13.43;3.10;;;3.70;99.90;;;;;;4993187;28;20062;-69
2022/04/09 00:34:05;;;;;;;13.73;2.80;;;;;;;;;;4990905;28;20045;-68
2022/04/09 00:36:31;;;;;;;11.47;2.23;;;;;;;;;;4973417;28;20019;-68
2022/04/09 00:38:56;;;;;;;15.83;2.17;;;3.90;99.90;;;;;;4974157;28;20181;-68
2022/04/09 00:41:21;;;;;;;14.50;2.80;;;3.70;99.90;;;;;;4974167;28;20030;-68
2022/04/09 00:43:47;;;;;;;10.97;2.13;;;3.80;99.90;;;;;;4973586;28;20038;-68
2022/04/09 00:46:13;;;;;;;13.90;2.47;;;3.60;99.90;;;;;;4972795;28;20062;-68
2022/04/09 00:48:41;;;;;;;15.90;2.53;;;3.70;99.90;;;;;;4973257;28;20118;-68
2022/04/09 00:51:07;;;;;;;9.37;1.80;;;3.80;99.90;;;;;;4974491;28;20030;-68
2022/04/09 00:53:35;;;;;;;9.97;2.03;;;3.60;99.90;;;;;;4973428;28;20407;-68
2022/04/09 00:56:16;;;;;;;21.30;4.57;;;3.70;99.90;;;;;;4973888;28;20038;-68
2022/04/09 00:58:56;;;;;;;16.40;3.00;;;3.60;99.90;;;;;;4973356;28;20376;-68
2022/04/09 01:01:24;;;;;;;12.97;2.27;;;3.60;99.90;;;;;;4973814;28;20061;-68
2022/04/09 01:03:51;;;;;;;9.67;3.57;;;3.50;99.90;;;;;;4973745;28;20096;-68
2022/04/09 01:06:17;;;;;;;11.97;1.90;;;3.60;99.90;;;;;;4992707;28;20018;-68
2022/04/09 01:08:42;;;;;;;16.17;4.20;;;3.60;99.90;;;;;;4992441;28;20440;-68
2022/04/09 01:11:08;;;;;;;15.13;2.57;;;;;;;;;;4993008;28;20503;-68
2022/04/09 01:13:35;;;;;;;8.23;2.47;;;3.70;99.90;;;;;;4992412;28;20026;-68
2022/04/09 01:16:00;;;;;;;14.30;2.47;;;3.60;99.90;;;;;;4992990;28;20105;-68
2022/04/09 01:18:26;;;;;;;17.13;3.00;;;3.30;99.90;;;;;;4991386;28;20118;-68
2022/04/09 01:20:52;;;;;;;8.37;2.10;;;;;;;;;;4975253;28;20100;-68
2022/04/09 01:23:17;;;;;;;9.67;1.90;;;3.60;99.90;;;;;;4973396;28;20018;-68
2022/04/09 01:25:43;;;;;;;8.50;1.80;;;;;;;;;;4972564;28;20408;-68
2022/04/09 01:28:09;;;;;;;6.10;2.07;;;3.70;99.90;;;;;;4955836;28;20121;-68
2022/04/09 01:30:34;;;;;;;8.93;3.10;;;3.50;99.90;;;;;;4986763;28;20085;-68
2022/04/09 01:33:00;;;;;;;9.63;3.10;;;;;;;;;;4992647;28;20042;-70
2022/04/09 01:35:25;;;;;;;8.60;1.50;;;3.50;99.90;;;;;;4992061;28;20034;-70
2022/04/09 01:37:51;;;;;;;14.00;1.30;;;;;;;;;;4988628;28;20036;-70
2022/04/09 01:40:17;;;;;;;12.07;2.50;;;3.70;99.90;;;;;;4972779;28;20396;-70
2022/04/09 01:42:43;;;;;;;8.53;1.67;;;3.50;99.90;;;;;;4972414;28;20042;-69
2022/04/09 01:45:09;;;;;;;10.27;3.40;;;3.60;99.90;;;;;;4984771;28;20030;-70
2022/04/09 01:47:40;;;;;;;11.60;2.23;;;;;;;;;;4991839;28;20507;-70
2022/04/09 01:50:08;;;;;;;10.10;2.03;;;3.70;99.90;;;;;;4991975;28;20038;-70
2022/04/09 01:52:34;;;;;;;8.40;2.10;;;;;;;;;;4991817;28;20105;-70
2022/04/09 01:55:00;;;;;;;10.83;1.83;;;;;;;;;;4992374;28;20117;-70
2022/04/09 01:57:25;;;;;;;8.87;1.70;;;3.60;99.90;;;;;;4992195;28;20104;-68
2022/04/09 01:59:51;;;;;;;7.13;1.50;;;3.80;99.90;;;;;;4982689;28;20430;-68
2022/04/09 02:02:17;;;;;;;8.23;2.40;;;;;;;;;;4955379;28;20038;-68
2022/04/09 02:04:42;;;;;;;13.30;2.33;;;3.80;99.90;;;;;;4971873;28;20076;-68
2022/04/09 02:07:08;;;;;;;10.67;2.33;;;;;;;;;;4972592;28;20041;-68
2022/04/09 02:09:34;;;;;;;12.50;1.97;;;4.10;99.90;;;;;;4971934;28;20778;-68
2022/04/09 02:12:00;;;;;;;11.73;2.17;;;;;;;;;;4971155;28;20055;-68
2022/04/09 02:14:25;;;;;;;8.80;1.67;;;4.00;99.90;;;;;;4954886;28;20026;-68
2022/04/09 02:16:51;;;;;;;9.70;1.40;;;4.20;99.90;;;;;;4972148;28;20062;-68
2022/04/09 02:19:17;;;;;;;10.37;1.80;;;4.30;99.90;;;;;;4976286;28;20030;-68
2022/04/09 02:21:43;;;;;;;14.73;1.83;;;4.60;99.90;;;;;;4973963;28;20341;-68
2022/04/09 02:24:09;;;;;;;13.33;1.50;;;4.40;99.90;;;;;;4991724;28;20101;-68
2022/04/09 02:26:35;;;;;;;8.80;1.60;;;4.60;99.90;;;;;;4990875;28;20179;-68
2022/04/09 02:29:01;;;;;;;6.20;1.10;;;;;;;;;;4991652;28;20173;-68
2022/04/09 02:31:26;;;;;;;6.40;1.17;;;;;;;;;;4991051;28;20395;-68
2022/04/09 02:33:53;;;;;;;7.20;1.20;;;4.70;99.90;;;;;;4991365;28;20042;-68
2022/04/09 02:36:19;;;;;;;7.50;1.40;;;4.50;99.90;;;;;;4991625;28;20360;-68
2022/04/09 02:38:45;;;;;;;8.33;1.00;;;4.60;99.90;;;;;;4987536;28;20054;-68
2022/04/09 02:41:11;;;;;;;4.97;0.80;;;;;;;;;;4991307;28;20381;-68
2022/04/09 02:43:37;;;;;;;4.93;1.00;;;4.40;99.90;;;;;;4990858;28;20644;-68
2022/04/09 02:46:03;;;;;;;7.73;0.90;;;;;;;;;;4983687;28;20034;-68
2022/04/09 02:48:28;;;;;;;7.43;0.93;;;4.40;99.90;;;;;;4970803;28;20070;-68
2022/04/09 02:50:54;;;;;;;10.00;1.40;;;4.40;99.90;;;;;;4970583;28;20059;-68
2022/04/09 02:53:20;;;;;;;6.80;1.43;;;4.30;99.90;;;;;;4971655;28;20039;-68
2022/04/09 02:55:46;;;;;;;11.10;1.77;;;;;;;;;;4971100;28;20027;-68
2022/04/09 02:58:12;;;;;;;8.33;1.20;;;4.10;99.90;;;;;;4971933;28;20701;-68
2022/04/09 03:00:38;;;;;;;5.10;1.00;;;;;;;;;;4984355;28;20042;-68
2022/04/09 03:03:04;;;;;;;6.90;1.47;;;4.20;99.90;;;;;;4991096;28;20434;-68
2022/04/09 03:05:30;;;;;;;7.80;2.43;;;4.10;99.90;;;;;;4990432;28;20151;-68
2022/04/09 03:07:55;;;;;;;13.17;1.43;;;4.00;99.90;;;;;;4990343;28;20126;-68
2022/04/09 03:10:21;;;;;;;5.93;1.07;;;;;;;;;;4990587;28;20054;-68
2022/04/09 03:12:48;;;;;;;7.87;1.20;;;3.70;99.90;;;;;;4989177;28;20121;-68
2022/04/09 03:15:14;;;;;;;13.93;1.57;;;3.90;99.90;;;;;;4980525;28;20031;-68
2022/04/09 03:17:40;;;;;;;10.20;1.60;;;4.10;99.90;;;;;;4989574;28;20116;-68
2022/04/09 03:20:06;;;;;;;7.17;1.57;;;3.80;99.90;;;;;;4990868;28;20030;-68
2022/04/09 03:22:32;;;;;;;10.87;1.57;;;3.60;99.90;;;;;;4990126;28;20468;-68
2022/04/09 03:24:59;;;;;;;6.60;1.27;;;3.70;99.90;;;;;;4988985;28;20137;-68
2022/04/09 03:27:27;;;;;;;11.20;1.50;;;3.80;99.90;;;;;;4990395;28;20466;-68
2022/04/09 03:29:53;;;;;;;6.67;1.23;;;3.80;99.90;;;;;;4989971;28;20034;-68
2022/04/09 03:32:20;;;;;;;7.30;1.00;;;4.30;99.90;;;;;;4990520;28;20053;-68
2022/04/09 03:34:45;;;;;;;5.13;0.90;;;3.90;99.90;;;;;;4989693;28;20045;-68
2022/04/09 03:37:11;;;;;;;8.83;1.10;;;3.90;99.90;;;;;;4990526;28;20030;-68
2022/04/09 03:39:37;;;;;;;10.30;1.00;;;4.00;99.90;;;;;;4989774;28;20030;-68
2022/04/09 03:42:04;;;;;;;7.63;1.47;;;3.90;99.90;;;;;;4990628;28;20068;-68
2022/04/09 03:44:29;;;;;;;10.13;1.17;;;4.00;99.90;;;;;;4989541;28;20113;-70
2022/04/09 03:47:03;;;;;;;6.43;1.57;;;3.80;99.90;;;;;;4990206;28;20413;-70
2022/04/09 03:49:32;;;;;;;12.63;2.30;;;4.00;99.90;;;;;;4987951;28;20108;-70
2022/04/09 03:51:58;;;;;;;5.17;0.93;;;3.90;99.90;;;;;;4990064;28;20101;-68
2022/04/09 03:54:25;;;;;;;5.27;1.03;;;3.90;99.90;;;;;;4989978;28;20109;-68
2022/04/09 03:56:51;;;;;;;4.70;1.53;;;3.80;99.90;;;;;;4989880;28;20073;-68
2022/04/09 03:59:17;;;;;;;10.17;2.00;;;;;;;;;;4989866;28;20034;-68
2022/04/09 04:01:47;;;;;;;12.73;1.30;;;3.90;99.90;;;;;;4989205;28;20026;-68
2022/04/09 04:04:13;;;;;;;6.70;1.20;;;;;;;;;;4976221;28;20039;-68
2022/04/09 04:06:38;;;;;;;10.30;1.33;;;3.80;99.90;;;;;;4970043;28;20037;-68
2022/04/09 04:09:04;;;;;;;8.70;2.13;;;3.60;99.90;;;;;;4970404;28;20043;-68
2022/04/09 04:11:30;;;;;;;4.70;1.37;;;3.30;99.90;;;;;;4970286;28;20380;-68
2022/04/09 04:13:55;;;;;;;10.77;2.33;;;3.70;99.90;;;;;;4970173;28;20035;-70
2022/04/09 04:16:21;;;;;;;14.33;1.87;;;;;;;;;;4970632;28;20387;-70
2022/04/09 04:18:47;;;;;;;9.60;1.27;;;;;;;;;;4979517;28;20038;-70
2022/04/09 04:21:13;;;;;;;8.00;1.70;;;4.00;99.90;;;;;;4989905;28;20029;-70
2022/04/09 04:23:39;;;;;;;7.67;1.63;;;;;;;;;;4989353;28;20034;-68
2022/04/09 04:26:05;;;;;;;9.67;2.00;;;4.20;99.90;;;;;;4989796;28;20126;-70
2022/04/09 04:28:30;;;;;;;11.57;2.53;;;;;;;;;;4988894;28;20145;-70
2022/04/09 04:30:56;;;;;;;12.10;2.47;;;4.20;99.90;;;;;;4989889;28;20077;-68
2022/04/09 04:33:22;;;;;;;13.50;1.60;;;4.40;99.90;;;;;;4982958;28;20519;-68
2022/04/09 04:35:47;;;;;;;6.80;1.73;;;4.30;99.90;;;;;;4969802;28;20027;-68
2022/04/09 04:38:13;;;;;;;8.60;1.37;;;4.50;99.90;;;;;;4970496;28;20019;-68
2022/04/09 04:40:39;;;;;;;10.53;2.00;;;4.40;99.90;;;;;;4969695;28;20027;-68
2022/04/09 04:43:05;;;;;;;10.57;1.90;;;;;;;;;;4970147;28;20038;-68
2022/04/09 04:45:31;;;;;;;8.60;1.43;;;4.40;99.90;;;;;;4969814;28;20031;-68
2022/04/09 04:47:57;;;;;;;11.60;1.60;;;4.70;99.90;;;;;;4970141;28;20436;-68
2022/04/09 04:50:23;;;;;;;6.13;1.10;;;;;;;;;;4955014;28;20055;-69
2022/04/09 04:52:49;;;;;;;7.13;1.40;;;4.60;99.90;;;;;;4969985;28;20027;-68
2022/04/09 04:55:15;;;;;;;9.27;2.13;;;4.60;99.90;;;;;;4970351;28;20026;-68
2022/04/09 04:57:52;;;;;;;10.23;1.53;;;4.60;99.90;;;;;;4969240;28;20369;-68
2022/04/09 05:00:20;;;;;;;7.57;1.40;;;4.60;99.90;;;;;;4970249;28;20027;-68
2022/04/09 05:02:46;;;;;;;9.70;1.60;;;;;;;;;;4969498;28;20110;-68
2022/04/09 05:05:11;;;;;;;8.73;1.50;;;4.70;99.90;;;;;;4989287;28;20110;-68
2022/04/09 05:07:39;;;;;;;4.37;0.90;;;4.50;99.90;;;;;;4988863;28;20172;-68
2022/04/09 05:10:09;;;;;;;6.20;1.30;;;4.50;99.90;;;;;;4989511;28;20026;-68
2022/04/09 05:12:37;;;;;;;4.63;1.03;;;4.40;99.90;;;;;;4988488;28;20022;-68
2022/04/09 05:15:04;;;;;;;8.23;1.10;;;4.30;99.90;;;;;;4992237;28;20035;-68
2022/04/09 05:17:30;;;;;;;5.60;1.07;;;;;;;;;;4991234;28;20483;-68
2022/04/09 05:19:56;;;;;;;7.93;0.80;;;;;;;;;;4956749;28;20035;-68
2022/04/09 05:22:22;;;;;;;12.73;1.40;;;4.20;99.90;;;;;;4956023;28;20029;-68
2022/04/09 05:24:49;;;;;;;4.30;1.07;;;;;;;;;;4972927;28;20039;-68
2022/04/09 05:27:15;;;;;;;6.17;1.20;;;4.30;99.90;;;;;;4982988;28;20129;-68
2022/04/09 05:29:41;;;;;;;6.10;1.13;;;;;;;;;;4990767;28;20251;-68
2022/04/09 05:32:06;;;;;;;10.63;1.50;;;4.10;99.90;;;;;;4992612;28;20023;-68
2022/04/09 05:34:32;;;;;;;11.80;2.50;;;;;;;;;;4992123;28;20506;-68
2022/04/09 05:36:58;;;;;;;11.77;2.03;;;4.20;99.90;;;;;;4992522;28;20104;-68
2022/04/09 05:39:24;;;;;;;16.47;1.93;;;;;;;;;;4977330;28;20101;-68
2022/04/09 05:41:49;;;;;;;9.73;1.70;;;4.10;99.90;;;;;;4972573;28;20220;-68
2022/04/09 05:44:15;;;;;;;9.40;2.27;;;4.20;99.90;;;;;;4973107;28;20034;-68
2022/04/09 05:46:40;;;;;;;9.83;2.40;;;4.20;99.90;;;;;;4954815;28;20027;-68
2022/04/09 05:49:06;;;;;;;10.37;2.57;;;4.90;99.90;;;;;;4984338;28;20069;-68
2022/04/09 05:51:32;;;;;;;9.80;1.87;;;4.40;99.90;;;;;;4991833;28;20018;-68
2022/04/09 05:53:59;;;;;;;7.30;1.50;;;4.50;99.90;;;;;;4992173;28;20022;-68
2022/04/09 05:56:25;;;;;;;6.47;1.40;;;4.50;99.90;;;;;;4988120;28;20037;-68
2022/04/09 05:58:51;;;;;;;12.30;2.00;;;;;;;;;;4972387;28;20098;-70
2022/04/09 06:01:16;;;;;;;6.17;1.57;;;4.50;99.90;;;;;;4972453;28;20035;-70
2022/04/09 06:03:42;;;;;;;6.87;1.53;;;4.60;99.90;;;;;;4972080;28;20115;-70
2022/04/09 06:06:09;;;;;;;9.83;2.60;;;4.70;99.90;;;;;;4955185;28;20101;-70
2022/04/09 06:08:35;;;;;;;9.07;1.73;;;4.80;99.90;;;;;;4971863;28;20026;-70
2022/04/09 06:11:01;;;;;;;13.93;1.90;;;5.00;99.90;;;;;;4972021;28;20090;-70
2022/04/09 06:13:27;;;;;;;13.97;2.37;;;;;;;;;;4972003;28;20390;-70
2022/04/09 06:15:53;;;;;;;13.80;2.33;;;5.50;99.90;;;;;;4954527;28;20077;-70
2022/04/09 06:18:18;;;;;;;14.33;2.07;;;5.40;99.90;;;;;;4971859;28;20404;-70
2022/04/09 06:20:44;;;;;;;14.50;1.70;;;5.40;99.90;;;;;;4991057;28;20041;-70
2022/04/09 06:23:10;;;;;;;8.87;1.43;;;;;;;;;;4975416;28;20046;-70
2022/04/09 06:25:35;;;;;;;8.60;0.93;;;4.90;99.90;;;;;;4953272;28;20079;-70
2022/04/09 06:28:01;;;;;;;5.97;1.13;;;4.90;99.90;;;;;;4976633;28;20109;-70
2022/04/09 06:30:27;;;;;;;7.93;2.10;;;4.80;99.90;;;;;;4989655;28;20144;-70
2022/04/09 06:32:54;;;;;;;7.47;1.37;;;;;;;;;;4990554;28;20041;-70
2022/04/09 06:35:20;;;;;;;7.53;1.40;;;4.60;99.90;;;;;;4988446;28;20097;-70
2022/04/09 06:37:45;;;;;;;8.70;1.57;;;;;;;;;;4990576;28;20049;-70
2022/04/09 06:40:12;;;;;;;7.67;1.13;;;4.90;99.90;;;;;;4990844;28;20052;-70
2022/04/09 06:42:41;;;;;;;8.33;1.30;;;4.90;99.90;;;;;;4990721;28;20026;-70
2022/04/09 06:45:10;;;;;;;10.93;2.07;;;5.20;99.90;;;;;;4991219;28;20037;-70
2022/04/09 06:47:40;;;;;;;9.53;1.73;;;5.40;99.90;;;;;;4990432;28;20030;-71
2022/04/09 06:50:10;;;;;;;6.57;1.73;;;5.40;99.90;;;;;;4975708;28;20445;-70
2022/04/09 06:52:37;;;;;;;7.63;1.83;;;5.50;99.90;;;;;;4970449;28;20099;-74
2022/04/09 06:55:04;;;;;;;16.20;2.83;;;5.20;99.90;;;;;;4954180;28;20033;-74
2022/04/09 06:57:29;;;;;;;13.77;2.43;;;5.70;99.90;;;;;;4970752;28;20361;-74
2022/04/09 06:59:59;;;;;;;16.73;3.20;;;5.20;99.90;;;;;;4984594;28;20057;-74
2022/04/09 07:02:25;;;;;;;14.47;2.40;;;5.30;99.90;;;;;;4987310;28;20018;-74
2022/04/09 07:04:51;;;;;;;12.67;2.70;;;5.20;99.90;;;;;;4989900;28;20116;-74
2022/04/09 07:07:24;;;;;;;8.40;1.93;;;5.30;99.90;;;;;;4990390;28;20045;-74
2022/04/09 07:09:50;;;;;;;9.40;2.27;;;5.30;99.90;;;;;;4989904;28;20081;-74
2022/04/09 07:12:16;;;;;;;9.30;1.37;;;5.40;99.90;;;;;;4990751;28;20120;-74
2022/04/09 07:14:43;;;;;;;11.97;2.00;;;5.50;99.90;;;;;;4979361;28;20121;-75
2022/04/09 07:17:08;;;;;;;19.50;2.27;;;5.70;99.90;;;;;;4971145;28;20109;-74
2022/04/09 07:19:34;;;;;;;13.43;4.00;;;5.70;99.90;;;;;;4970417;28;20098;-72
2022/04/09 07:22:00;;;;;;;13.93;2.63;;;5.50;99.90;;;;;;4970751;28;20078;-73
2022/04/09 07:24:26;;;;;;;14.50;2.87;;;;;;;;;;4974267;28;20035;-74
2022/04/09 07:26:52;;;;;;;12.30;2.67;;;6.10;99.90;;;;;;4981460;28;20046;-72
2022/04/09 07:29:18;;;;;;;10.33;2.60;;;;;;;;;;4989782;28;20104;-74
2022/04/09 07:31:45;;;;;;;12.20;2.57;;;6.60;99.90;;;;;;4988310;28;20102;-73
2022/04/09 07:34:11;;;;;;;12.37;2.00;;;6.70;99.90;;;;;;4983680;28;20533;-74
2022/04/09 07:36:38;;;;;;;10.67;2.50;;;;;;;;;;4988160;28;20098;-74
2022/04/09 07:39:05;;;;;;;22.23;3.37;;;6.70;99.90;;;;;;4989867;28;20029;-72
2022/04/09 07:41:31;;;;;;;5.97;1.63;;;;;;;;;;4989298;28;20099;-71
2022/04/09 07:43:57;;;;;;;3.53;1.17;;;6.10;99.90;;;;;;4989808;28;20113;-74
2022/04/09 07:46:23;;;;;;;2.83;0.63;;;;;;;;;;4989650;28;20033;-74
2022/04/09 07:48:49;;;;;;;8.63;1.23;;;;;;;;;;4989326;28;20034;-74
2022/04/09 07:51:15;;;;;;;12.00;1.77;;;5.50;99.90;;;;;;4988677;28;20032;-74
2022/04/09 07:53:41;;;;;;;4.47;1.10;;;5.40;99.90;;;;;;4989105;28;20022;-74
2022/04/09 07:56:08;;;;;;;7.07;1.00;;;;;;;;;;4989717;28;20404;-74
2022/04/09 07:58:34;;;;;;;2.87;1.00;;;;;;;;;;4988310;28;20023;-74
2022/04/09 08:00:59;;;;;;;4.10;0.80;;;5.10;99.90;;;;;;4988271;28;20053;-73
2022/04/09 08:03:25;;;;;;;3.73;0.53;;;5.10;99.90;;;;;;4989324;28;20076;-73
2022/04/09 08:05:50;;;;;;;3.50;0.93;;;5.10;99.90;;;;;;4980216;28;20030;-75
2022/04/09 08:08:16;;;;;;;2.60;0.50;;;5.40;99.90;;;;;;4970217;28;20125;-75
2022/04/09 08:10:42;;;;;;;5.97;0.50;;;;;;;;;;4970764;28;20046;-75
2022/04/09 08:13:08;;;;;;;3.43;0.60;;;5.70;99.90;;;;;;4981177;28;20114;-75
2022/04/09 08:15:34;;;;;;;2.53;0.80;;;;;;;;;;4969684;28;20126;-74
2022/04/09 08:18:06;;;;;;;14.37;1.47;;;6.20;99.90;;;;;;4985348;28;20202;-74
2022/04/09 08:20:32;;;;;;;6.60;1.93;;;;;;;;;;4988548;28;20100;-74
2022/04/09 08:22:59;;;;;;;10.03;3.30;;;6.90;99.90;;;;;;4989448;28;20034;-74
2022/04/09 08:25:25;;;;;;;7.20;1.10;;;6.80;99.90;;;;;;4988069;28;20157;-75
2022/04/09 08:27:52;;;;;;;7.67;0.70;;;7.00;99.90;;;;;;4988337;28;20548;-73
2022/04/09 08:30:18;;;;;;;8.03;0.97;;;;;;;;;;4989209;28;20479;-73
2022/04/09 08:32:44;;;;;;;6.53;1.33;;;6.90;99.90;;;;;;4980208;28;20034;-72
2022/04/09 08:35:10;;;;;;;7.03;1.00;;;;;;;;;;4975689;28;20034;-72
2022/04/09 08:37:37;;;;;;;2.43;0.83;;;7.00;99.90;;;;;;4987426;28;20105;-72
2022/04/09 08:40:03;;;;;;;6.37;1.47;;;7.20;99.90;;;;;;4989018;28;20031;-72
2022/04/09 08:42:30;;;;;;;7.10;2.00;;;7.60;99.90;;;;;;4980966;28;20034;-74
2022/04/09 08:44:58;;;;;;;7.33;2.10;;;7.60;99.90;;;;;;4970035;28;20106;-73
2022/04/09 08:47:28;;;;;;;12.70;2.73;;;;;;;;;;4969822;28;20477;-72
2022/04/09 08:49:55;;;;;;;6.20;1.60;;;7.80;99.90;;;;;;4955199;28;20049;-72
2022/04/09 08:52:21;;;;;;;6.97;1.73;;;7.70;99.90;;;;;;4983716;28;20015;-73
2022/04/09 08:54:47;;;;;;;9.70;1.90;;;7.60;99.90;;;;;;4990703;28;20030;-72
2022/04/09 08:57:14;;;;;;;4.53;1.70;;;7.70;99.90;;;;;;4992331;28;20018;-72
2022/04/09 08:59:40;;;;;;;6.70;3.47;;;7.60;99.90;;;;;;4991992;28;20056;-72
2022/04/09 09:02:06;;;;;;;9.17;2.70;;;7.50;99.90;;;;;;4990409;28;20387;-72
2022/04/09 09:04:31;;;;;;;7.70;2.40;;;7.10;99.90;;;;;;4991833;28;20076;-73
2022/04/09 09:07:20;;;;;;;11.27;2.53;;;6.90;99.90;;;;;;4991154;28;20027;-72
2022/04/09 09:09:46;;;;;;;10.90;2.90;;;6.90;99.90;;;;;;4991805;28;20045;-73
2022/04/09 09:12:14;;;;;;;8.23;1.73;;;;;;;;;;4992230;28;20126;-72
2022/04/09 09:14:45;;;;;;;13.60;1.97;;;7.20;99.90;;;;;;4991984;28;20103;-73
2022/04/09 09:17:11;;;;;;;12.60;2.00;;;7.40;99.90;;;;;;4975157;28;20026;-72
2022/04/09 09:19:47;;;;;;;7.77;1.97;;;7.50;99.90;;;;;;4991276;28;20541;-73
2022/04/09 09:22:14;;;;;;;9.03;1.57;;;7.30;99.90;;;;;;4992111;28;20112;-72
2022/04/09 09:24:39;;;;;;;7.03;1.20;;;7.20;99.90;;;;;;4991550;28;20022;-72
2022/04/09 09:27:06;;;;;;;5.90;1.83;;;6.80;99.90;;;;;;4989831;28;20035;-73
2022/04/09 09:29:33;;;;;;;5.77;1.70;;;6.40;99.90;;;;;;4970877;28;20396;-72
2022/04/09 09:32:01;;;;;;;7.77;2.10;;;6.30;99.90;;;;;;4972300;28;20093;-73
2022/04/09 09:34:28;;;;;;;6.97;1.83;;;6.10;99.90;;;;;;4981153;28;20023;-73
2022/04/09 09:36:54;;;;;;;4.73;1.10;;;;;;;;;;4991114;28;20041;-72
2022/04/09 09:39:22;;;;;;;4.63;0.90;;;6.20;99.90;;;;;;4991300;28;20395;-73
2022/04/09 09:41:51;;;;;;;12.40;1.40;;;6.20;99.90;;;;;;4988527;28;20034;-73
2022/04/09 09:44:18;;;;;;;6.47;1.47;;;6.30;99.90;;;;;;4991349;28;20085;-72
2022/04/09 09:46:47;;;;;;;4.07;1.23;;;6.30;99.90;;;;;;4973068;28;20030;-72
2022/04/09 09:49:13;;;;;;;5.00;1.10;;;6.90;99.90;;;;;;4991466;28;20061;-72
2022/04/09 09:51:39;;;;;;;4.13;0.97;;;;;;;;;;4991263;28;20479;-72
2022/04/09 09:54:11;;;;;;;7.13;1.10;;;7.80;99.90;;;;;;4991215;28;20034;-72
2022/04/09 09:56:37;;;;;;;7.30;1.00;;;;;;;;;;4990977;28;20411;-72
2022/04/09 09:59:07;;;;;;;4.37;0.70;;;7.40;99.90;;;;;;4973376;28;20027;-73
2022/04/09 10:01:38;;;;;;;7.13;1.57;;;7.30;99.90;;;;;;4971499;28;20031;-72
2022/04/09 10:04:05;;;;;;;6.03;0.97;;;7.10;99.90;;;;;;4977702;28;20030;-72
2022/04/09 10:06:35;;;;;;;2.57;0.70;;;6.40;99.90;;;;;;4981739;28;20030;-72
2022/04/09 10:09:05;;;;;;;2.97;0.50;;;5.90;99.90;;;;;;4955746;28;20057;-73
2022/04/09 10:11:43;;;;;;;1.07;0.43;;;5.60;99.90;;;;;;4982482;28;20332;-73
2022/04/09 10:14:13;;;;;;;2.60;0.20;;;;;;;;;;4987655;28;20388;-72
2022/04/09 10:16:43;;;;;;;1.80;0.20;;;5.20;99.90;;;;;;4971145;28;20038;-72
2022/04/09 10:19:11;;;;;;;0.83;0.20;;;5.30;99.90;;;;;;4971895;28;20047;-73
2022/04/09 10:21:40;;;;;;;2.37;0.30;;;5.30;99.90;;;;;;4982848;28;20038;-73
2022/04/09 10:24:14;;;;;;;0.73;0.30;;;5.30;99.90;;;;;;4971792;28;20074;-73
2022/04/09 10:26:41;;;;;;;3.63;0.47;;;5.40;99.90;;;;;;4981293;28;20046;-72
2022/04/09 10:29:08;;;;;;;3.27;0.30;;;5.40;99.90;;;;;;4991128;28;20034;-72
2022/04/09 10:31:35;;;;;;;1.80;0.77;;;;;;;;;;4988826;28;20462;-73
2022/04/09 10:34:02;;;;;;;2.83;0.50;;;5.80;99.90;;;;;;4986891;28;20042;-72
2022/04/09 10:36:48;;;;;;;1.13;0.50;;;6.00;99.90;;;;;;4973941;28;20384;-72
2022/04/09 10:39:25;;;;;;;3.57;0.90;;;6.10;99.90;;;;;;4971674;28;20126;-73
2022/04/09 10:41:54;;;;;;;1.93;0.50;;;5.20;99.90;;;;;;4971157;28;20078;-72
2022/04/09 10:44:42;;;;;;;1.27;0.57;;;6.10;99.90;;;;;;4973648;28;20023;-72
2022/04/09 10:47:10;;;;;;;4.43;0.80;;;6.20;99.90;;;;;;4974007;28;20074;-72
2022/04/09 10:49:37;;;;;;;1.67;0.40;;;;;;;;;;4981796;28;20087;-72
2022/04/09 10:52:06;;;;;;;1.80;0.40;;;6.00;99.90;;;;;;4985965;28;20030;-72
2022/04/09 10:54:33;;;;;;;4.43;0.93;;;6.10;99.90;;;;;;4990458;28;20391;-74
2022/04/09 10:57:09;;;;;;;3.13;0.50;;;6.40;99.90;;;;;;4973109;28;20489;-71
2022/04/09 10:59:36;;;;;;;3.60;0.53;;;6.60;99.90;;;;;;4989570;28;20026;-71
2022/04/09 11:02:04;;;;;;;3.07;0.70;;;7.00;99.90;;;;;;4990516;28;20065;-73
2022/04/09 11:07:21;;;;;;;4.10;0.67;;;7.50;99.90;;;;;;4971121;28;20090;-73
2022/04/09 11:09:50;;;;;;;2.93;0.73;;;;;;;;;;4970477;28;20030;-74
2022/04/09 11:12:40;;;;;;;6.03;0.93;;;7.80;99.90;;;;;;4986201;28;20022;-74
2022/04/09 11:15:07;;;;;;;4.50;0.80;;;;;;;;;;4987507;28;20463;-73
2022/04/09 11:17:46;;;;;;;6.70;0.80;;;7.00;99.90;;;;;;4988725;28;20316;-73
2022/04/09 11:20:22;;;;;;;3.63;0.60;;;6.40;99.90;;;;;;4967579;28;20029;-74
2022/04/09 11:22:52;;;;;;;6.00;1.00;;;5.80;99.90;;;;;;4973662;28;20034;-74
2022/04/09 11:25:22;;;;;;;4.97;1.33;;;5.50;99.90;;;;;;4987797;28;20480;-73
2022/04/09 11:27:48;;;;;;;5.87;0.60;;;5.30;99.90;;;;;;4984777;28;20037;-74
2022/04/09 11:30:15;;;;;;;3.83;0.53;;;4.70;99.90;;;;;;4985134;28;20121;-73
2022/04/09 11:32:40;;;;;;;6.63;0.90;;;5.10;99.90;;;;;;4968763;28;20058;-73
2022/04/09 11:35:13;;;;;;;7.90;1.07;;;4.80;99.90;;;;;;4969678;28;20031;-72
2022/04/09 11:37:48;;;;;;;4.53;0.70;;;5.20;99.90;;;;;;4979772;28;20105;-72
2022/04/09 11:40:15;;;;;;;4.60;0.77;;;5.30;99.90;;;;;;4989866;28;20026;-72
2022/04/09 11:42:44;;;;;;;2.70;0.70;;;5.30;99.90;;;;;;4988848;28;20034;-72
2022/04/09 11:45:20;;;;;;;7.17;0.80;;;5.40;99.90;;;;;;4989850;28;20022;-73
2022/04/09 11:47:46;;;;;;;2.20;0.80;;;5.40;99.90;;;;;;4989055;28;20034;-73
2022/04/09 11:50:13;;;;;;;5.37;0.90;;;5.30;99.90;;;;;;4985937;28;20034;-73
2022/04/09 11:52:39;;;;;;;4.67;1.10;;;5.40;99.90;;;;;;4969741;28;20019;-74
2022/04/09 11:55:09;;;;;;;7.90;1.00;;;;;;;;;;4970383;28;20031;-74
2022/04/09 11:57:35;;;;;;;6.63;1.00;;;5.60;99.90;;;;;;4969176;28;20057;-74
2022/04/09 12:00:04;;;;;;;4.97;0.80;;;5.60;99.90;;;;;;4970322;28;20480;-73
2022/04/09 12:02:30;;;;;;;4.83;0.90;;;5.90;99.90;;;;;;4969946;28;20736;-74
2022/04/09 12:04:56;;;;;;;2.73;0.73;;;6.40;99.90;;;;;;4973941;28;20038;-74
2022/04/09 12:07:24;;;;;;;2.33;1.03;;;6.80;99.90;;;;;;4972461;28;20038;-73
2022/04/09 12:09:50;;;;;;;8.87;1.13;;;;;;;;;;4989018;28;20449;-73
2022/04/09 12:12:19;;;;;;;3.03;0.53;;;7.50;99.90;;;;;;4989190;28;20026;-74
2022/04/09 12:14:56;;;;;;;2.73;0.63;;;7.60;99.90;;;;;;4988947;28;20026;-76
2022/04/09 12:17:29;;;;;;;4.50;0.60;;;7.70;99.90;;;;;;4989643;28;20398;-76
2022/04/09 12:19:55;;;;;;;9.85;1.45;;;7.40;99.90;;;;;;4985589;28;20034;-75
2022/04/09 12:22:23;;;;;;;1.37;0.70;;;8.20;99.90;;;;;;4971530;28;20038;-74
2022/04/09 12:24:49;;;;;;;3.23;0.80;;;7.70;99.90;;;;;;4978469;28;20025;-75
2022/04/09 12:27:15;;;;;;;5.23;0.50;;;7.50;99.90;;;;;;4973975;28;20030;-75
2022/04/09 12:29:54;;;;;;;3.23;1.00;;;7.60;99.90;;;;;;4990860;28;20050;-74
2022/04/09 12:32:26;;;;;;;5.93;0.70;;;7.40;99.90;;;;;;4991923;28;20734;-75
2022/04/09 12:34:59;;;;;;;3.13;0.50;;;7.40;99.90;;;;;;4989911;28;20045;-74
2022/04/09 12:37:25;;;;;;;3.40;0.90;;;7.70;99.90;;;;;;4993053;28;20050;-74
2022/04/09 12:40:09;;;;;;;3.93;0.70;;;7.60;99.90;;;;;;4991835;28;20034;-74
2022/04/09 12:42:35;;;;;;;5.70;0.70;;;7.80;99.90;;;;;;4991848;28;20038;-74
2022/04/09 12:45:11;;;;;;;5.53;1.00;;;7.80;99.90;;;;;;4993291;28;20042;-74
2022/04/09 12:47:37;;;;;;;5.73;1.00;;;;;;;;;;4987055;28;20041;-75
2022/04/09 12:50:04;;;;;;;5.97;1.07;;;;;;;;;;4986525;28;20061;-74
2022/04/09 12:52:30;;;;;;;7.10;1.00;;;;;;;;;;4992685;28;20061;-74
2022/04/09 12:54:57;;;;;;;6.43;0.80;;;6.50;99.90;;;;;;4990744;28;20367;-73
2022/04/09 12:57:23;;;;;;;2.53;0.70;;;;;;;;;;4981929;28;20033;-74
2022/04/09 12:59:48;;;;;;;5.53;0.70;;;6.40;99.90;;;;;;4992432;28;20391;-74
2022/04/09 13:02:15;;;;;;;6.37;0.80;;;;;;;;;;4992457;28;20030;-75
2022/04/09 13:04:41;;;;;;;4.17;0.97;;;;;;;;;;4991845;28;20030;-74
2022/04/09 13:07:07;;;;;;;4.37;1.00;;;6.40;99.90;;;;;;4982526;28;20035;-74
2022/04/09 13:09:33;;;;;;;4.90;1.23;;;;;;;;;;4989748;28;20091;-73
2022/04/09 13:11:59;;;;;;;4.83;1.23;;;6.90;99.90;;;;;;4992211;28;20038;-73
2022/04/09 13:14:25;;;;;;;6.43;1.20;;;;;;;;;;4992425;28;20030;-73
2022/04/09 13:16:51;;;;;;;7.07;1.30;;;6.60;99.90;;;;;;4992249;28;20035;-73
2022/04/09 13:19:16;;;;;;;4.50;1.03;;;6.50;99.90;;;;;;4988703;28;20493;-73
2022/04/09 13:21:42;;;;;;;5.83;1.43;;;6.60;99.90;;;;;;4987067;28;20034;-73